Airways and Terminal Forecast

Significant Meteorological Information

Terminal Aerodrome Forecast

TAF RPLL

220500Z 2206/2312 13006KT 9999 SCT023 BKN100 TX30/2207Z TN25/2221Z TEMPO 2206/2212 -SHRA SCT022 OVC090 TEMPO 2218/2223 VRB02KT -SHRA SCT023 OVC090=

TAF RPVM

220500Z 2206/2312 09005KT 9999 FEW020 BKN300 TEMPO 2206/2212 12006KT SHRA FEW018CB FEW020 BKN100 TEMPO 2212/2218 08004KT FEW018CB FEW020 BKN300=

TAF RPLC

220500Z 2206/2312 18010KT 9999 SCT020 BKN100 TX31/2206Z TN24/2222Z TEMPO 2206/2212 27008KT 7000 -TSRA FEW018CB SCT020 OVC100=

TAF RPLB

220500Z 2206/2306 05008KT 9999 SCT020 BKN080 TX30/2206Z TN23/2221Z TEMPO 2206/2212 06010KT 9000 -RA SCT018 BKN070=

TAF RPLI

220500Z 2206/2306 23006KT 9999 FEW018 SCT090 BKN290 TEMPO 2206/2212 VRB02KT 5000 -RA SCT018 OVC070=

TAF RPVP

220500Z 2206/2306 18006KT 9999 FEW019 BKN080 TEMPO 2206/2212 22010KT -SHRA SCT019 OVC080=

TAF RPVD

220500Z 2206/2306 29006KT 9999 FEW015 BKN070 TEMPO 2206/2212 09006KT 9000 -SHRA FEW014CB SCT015 OVC070=

TAF RPMR

220500Z 2206/2306 35006KT 9999 FEW018 BKN080 TEMPO 2206/2212 15010KT -SHRA FEW017CB SCT018 OVC080=

TAF RPMD

220500Z 2206/2306 36005KT 9999 FEW016 SCT090 BKN260 TEMPO 2206/2212 18006KT -SHRA SCT015 BKN090=

TAF RPMZ

220500Z 2206/2306 08005KT 9999 FEW017 SCT090 BKN300 TEMPO 2206/2212 27008KT -SHRA FEW016CB FEW017 BKN090=

RPLL FORECAST TAKE-OFF CONDITION

TIME

(UTC)

WIND

(dddffKT)

TEMP

(°C)

QNH

(hPa)

TIME

(UTC)

WIND

(dddffKT)

TEMP

(°C)

QNH

(hPa)

0600

    16006KT

30.0

1008.0

1000

VRB04KT

28.0

1009.0

0700

18005KT

30.0

1008.0

1100

12008KT

28.0

1009.0

0800

21006KT

29.0

1007.0

1200

13008KT

28.0

1010.0

0900

24008KT

29.0

1008.0

1300

13005KT

27.0

1010.0

ISSUED AT NAIA AMSS-WD/PAGASA-DOST FOR 0500UTC 22 JANUARY 2021

PREPARED BY:                CRSED

CHECKED BY:                  SSDH